sensor_id;sensor_type;location;lat;lon;timestamp;P1;durP1;ratioP1;P2;durP2;ratioP2
75655;SDS011;64252;51.094;13.714;2023-05-07T00:01:48;14.98;;;8.30;;
75655;SDS011;64252;51.094;13.714;2023-05-07T00:04:14;16.42;;;8.88;;
75655;SDS011;64252;51.094;13.714;2023-05-07T00:06:39;18.75;;;9.55;;
75655;SDS011;64252;51.094;13.714;2023-05-07T00:09:05;18.65;;;11.05;;
75655;SDS011;64252;51.094;13.714;2023-05-07T00:11:32;16.70;;;8.98;;
75655;SDS011;64252;51.094;13.714;2023-05-07T00:13:58;19.98;;;10.32;;
75655;SDS011;64252;51.094;13.714;2023-05-07T00:16:23;19.35;;;11.10;;
75655;SDS011;64252;51.094;13.714;2023-05-07T00:18:49;20.48;;;11.77;;
75655;SDS011;64252;51.094;13.714;2023-05-07T00:21:15;19.17;;;10.55;;
75655;SDS011;64252;51.094;13.714;2023-05-07T00:23:41;21.15;;;11.80;;
75655;SDS011;64252;51.094;13.714;2023-05-07T00:26:06;21.42;;;11.88;;
75655;SDS011;64252;51.094;13.714;2023-05-07T00:28:33;19.65;;;11.43;;
75655;SDS011;64252;51.094;13.714;2023-05-07T00:30:58;22.08;;;12.23;;
75655;SDS011;64252;51.094;13.714;2023-05-07T00:33:24;20.67;;;11.88;;
75655;SDS011;64252;51.094;13.714;2023-05-07T00:35:51;18.85;;;11.50;;
75655;SDS011;64252;51.094;13.714;2023-05-07T00:38:18;21.40;;;12.48;;
75655;SDS011;64252;51.094;13.714;2023-05-07T00:40:44;20.75;;;12.27;;
75655;SDS011;64252;51.094;13.714;2023-05-07T00:43:10;20.08;;;11.85;;
75655;SDS011;64252;51.094;13.714;2023-05-07T00:45:36;21.05;;;12.07;;
75655;SDS011;64252;51.094;13.714;2023-05-07T00:48:01;19.70;;;11.73;;
75655;SDS011;64252;51.094;13.714;2023-05-07T00:50:27;19.83;;;12.00;;
75655;SDS011;64252;51.094;13.714;2023-05-07T00:52:54;19.90;;;11.02;;
75655;SDS011;64252;51.094;13.714;2023-05-07T00:55:21;19.95;;;11.85;;
75655;SDS011;64252;51.094;13.714;2023-05-07T00:57:48;20.45;;;12.20;;
75655;SDS011;64252;51.094;13.714;2023-05-07T01:00:15;18.45;;;10.88;;
75655;SDS011;64252;51.094;13.714;2023-05-07T01:02:41;19.02;;;10.80;;
75655;SDS011;64252;51.094;13.714;2023-05-07T01:05:07;17.90;;;10.63;;
75655;SDS011;64252;51.094;13.714;2023-05-07T01:07:35;16.13;;;10.02;;
75655;SDS011;64252;51.094;13.714;2023-05-07T01:10:02;18.08;;;10.60;;
75655;SDS011;64252;51.094;13.714;2023-05-07T01:12:29;20.35;;;11.18;;
75655;SDS011;64252;51.094;13.714;2023-05-07T01:14:56;19.90;;;10.88;;
75655;SDS011;64252;51.094;13.714;2023-05-07T01:17:25;18.95;;;10.75;;
75655;SDS011;64252;51.094;13.714;2023-05-07T01:19:51;19.95;;;11.32;;
75655;SDS011;64252;51.094;13.714;2023-05-07T01:22:39;19.42;;;10.88;;
75655;SDS011;64252;51.094;13.714;2023-05-07T01:25:06;16.17;;;9.95;;
75655;SDS011;64252;51.094;13.714;2023-05-07T01:27:33;16.88;;;10.45;;
75655;SDS011;64252;51.094;13.714;2023-05-07T01:30:00;15.45;;;9.30;;
75655;SDS011;64252;51.094;13.714;2023-05-07T01:32:37;15.27;;;10.02;;
75655;SDS011;64252;51.094;13.714;2023-05-07T01:35:09;17.05;;;9.95;;
75655;SDS011;64252;51.094;13.714;2023-05-07T01:37:37;15.45;;;9.32;;
75655;SDS011;64252;51.094;13.714;2023-05-07T01:40:03;19.98;;;10.95;;
75655;SDS011;64252;51.094;13.714;2023-05-07T01:44:59;15.55;;;9.55;;
75655;SDS011;64252;51.094;13.714;2023-05-07T01:47:25;16.45;;;10.13;;
75655;SDS011;64252;51.094;13.714;2023-05-07T01:49:51;15.10;;;9.25;;
75655;SDS011;64252;51.094;13.714;2023-05-07T01:52:17;16.17;;;9.98;;
75655;SDS011;64252;51.094;13.714;2023-05-07T01:54:43;15.73;;;9.88;;
75655;SDS011;64252;51.094;13.714;2023-05-07T01:57:09;16.92;;;10.40;;
75655;SDS011;64252;51.094;13.714;2023-05-07T01:59:35;16.48;;;9.68;;
75655;SDS011;64252;51.094;13.714;2023-05-07T02:02:01;15.25;;;9.63;;
75655;SDS011;64252;51.094;13.714;2023-05-07T02:04:30;16.23;;;9.90;;
75655;SDS011;64252;51.094;13.714;2023-05-07T02:06:56;16.85;;;10.38;;
75655;SDS011;64252;51.094;13.714;2023-05-07T02:09:22;15.85;;;9.38;;
75655;SDS011;64252;51.094;13.714;2023-05-07T02:11:49;16.48;;;10.18;;
75655;SDS011;64252;51.094;13.714;2023-05-07T02:14:17;17.60;;;10.25;;
75655;SDS011;64252;51.094;13.714;2023-05-07T02:16:43;16.65;;;9.70;;
75655;SDS011;64252;51.094;13.714;2023-05-07T02:19:11;14.48;;;9.07;;
75655;SDS011;64252;51.094;13.714;2023-05-07T02:21:36;17.60;;;10.05;;
75655;SDS011;64252;51.094;13.714;2023-05-07T02:24:02;16.70;;;9.30;;
75655;SDS011;64252;51.094;13.714;2023-05-07T02:26:28;16.42;;;8.73;;
75655;SDS011;64252;51.094;13.714;2023-05-07T02:28:53;16.38;;;9.52;;
75655;SDS011;64252;51.094;13.714;2023-05-07T02:31:19;15.18;;;8.95;;
75655;SDS011;64252;51.094;13.714;2023-05-07T02:33:45;15.50;;;9.13;;
75655;SDS011;64252;51.094;13.714;2023-05-07T02:36:11;15.35;;;8.88;;
75655;SDS011;64252;51.094;13.714;2023-05-07T02:38:49;14.43;;;9.05;;
75655;SDS011;64252;51.094;13.714;2023-05-07T02:41:14;15.07;;;8.35;;
75655;SDS011;64252;51.094;13.714;2023-05-07T02:43:40;14.70;;;8.25;;
75655;SDS011;64252;51.094;13.714;2023-05-07T02:46:06;13.15;;;7.68;;
75655;SDS011;64252;51.094;13.714;2023-05-07T02:48:36;13.35;;;7.97;;
75655;SDS011;64252;51.094;13.714;2023-05-07T02:51:01;13.65;;;8.10;;
75655;SDS011;64252;51.094;13.714;2023-05-07T02:53:28;11.75;;;7.47;;
75655;SDS011;64252;51.094;13.714;2023-05-07T02:55:58;13.68;;;7.78;;
75655;SDS011;64252;51.094;13.714;2023-05-07T02:58:25;13.85;;;8.63;;
75655;SDS011;64252;51.094;13.714;2023-05-07T03:00:51;13.52;;;8.38;;
75655;SDS011;64252;51.094;13.714;2023-05-07T03:03:32;15.32;;;8.32;;
75655;SDS011;64252;51.094;13.714;2023-05-07T03:05:58;11.85;;;7.95;;
75655;SDS011;64252;51.094;13.714;2023-05-07T03:08:23;10.75;;;7.07;;
75655;SDS011;64252;51.094;13.714;2023-05-07T03:10:49;15.63;;;8.20;;
75655;SDS011;64252;51.094;13.714;2023-05-07T03:13:15;13.35;;;7.97;;
75655;SDS011;64252;51.094;13.714;2023-05-07T03:15:41;13.18;;;7.57;;
75655;SDS011;64252;51.094;13.714;2023-05-07T03:18:06;13.63;;;7.95;;
75655;SDS011;64252;51.094;13.714;2023-05-07T03:20:32;13.48;;;7.45;;
75655;SDS011;64252;51.094;13.714;2023-05-07T03:22:58;10.93;;;6.90;;
75655;SDS011;64252;51.094;13.714;2023-05-07T03:25:28;12.40;;;8.13;;
75655;SDS011;64252;51.094;13.714;2023-05-07T03:27:55;12.15;;;7.78;;
75655;SDS011;64252;51.094;13.714;2023-05-07T03:30:24;15.13;;;8.63;;
75655;SDS011;64252;51.094;13.714;2023-05-07T03:32:50;12.50;;;6.78;;
75655;SDS011;64252;51.094;13.714;2023-05-07T03:35:15;15.77;;;8.75;;
75655;SDS011;64252;51.094;13.714;2023-05-07T03:37:41;12.93;;;7.95;;
75655;SDS011;64252;51.094;13.714;2023-05-07T03:40:09;13.45;;;7.85;;
75655;SDS011;64252;51.094;13.714;2023-05-07T03:42:42;15.00;;;8.45;;
75655;SDS011;64252;51.094;13.714;2023-05-07T03:45:08;11.65;;;7.30;;
75655;SDS011;64252;51.094;13.714;2023-05-07T03:47:34;15.43;;;8.88;;
75655;SDS011;64252;51.094;13.714;2023-05-07T03:50:00;13.98;;;8.35;;
75655;SDS011;64252;51.094;13.714;2023-05-07T03:52:26;11.45;;;7.03;;
75655;SDS011;64252;51.094;13.714;2023-05-07T03:54:54;10.55;;;6.47;;
75655;SDS011;64252;51.094;13.714;2023-05-07T03:57:20;13.30;;;7.80;;
75655;SDS011;64252;51.094;13.714;2023-05-07T03:59:46;12.27;;;7.75;;
75655;SDS011;64252;51.094;13.714;2023-05-07T04:02:12;15.63;;;7.78;;
75655;SDS011;64252;51.094;13.714;2023-05-07T04:04:38;15.55;;;8.02;;
75655;SDS011;64252;51.094;13.714;2023-05-07T04:07:04;15.27;;;8.75;;
75655;SDS011;64252;51.094;13.714;2023-05-07T04:09:33;16.88;;;8.00;;
75655;SDS011;64252;51.094;13.714;2023-05-07T04:11:58;17.05;;;9.38;;
75655;SDS011;64252;51.094;13.714;2023-05-07T04:14:24;13.13;;;7.53;;
75655;SDS011;64252;51.094;13.714;2023-05-07T04:16:50;17.08;;;8.52;;
75655;SDS011;64252;51.094;13.714;2023-05-07T04:19:16;18.38;;;8.43;;
75655;SDS011;64252;51.094;13.714;2023-05-07T04:21:41;15.52;;;8.45;;
75655;SDS011;64252;51.094;13.714;2023-05-07T04:24:09;16.45;;;8.75;;
75655;SDS011;64252;51.094;13.714;2023-05-07T04:26:35;15.20;;;8.07;;
75655;SDS011;64252;51.094;13.714;2023-05-07T04:29:01;16.55;;;8.25;;
75655;SDS011;64252;51.094;13.714;2023-05-07T04:31:31;16.10;;;8.60;;
75655;SDS011;64252;51.094;13.714;2023-05-07T04:33:57;14.38;;;7.70;;
75655;SDS011;64252;51.094;13.714;2023-05-07T04:36:23;14.18;;;7.97;;
75655;SDS011;64252;51.094;13.714;2023-05-07T04:38:58;13.55;;;7.57;;
75655;SDS011;64252;51.094;13.714;2023-05-07T04:41:24;13.30;;;7.40;;
75655;SDS011;64252;51.094;13.714;2023-05-07T04:43:50;11.88;;;6.28;;
75655;SDS011;64252;51.094;13.714;2023-05-07T04:46:20;12.45;;;6.72;;
75655;SDS011;64252;51.094;13.714;2023-05-07T04:48:47;15.57;;;7.78;;
75655;SDS011;64252;51.094;13.714;2023-05-07T04:51:12;13.07;;;7.13;;
75655;SDS011;64252;51.094;13.714;2023-05-07T04:53:39;16.00;;;7.70;;
75655;SDS011;64252;51.094;13.714;2023-05-07T04:56:05;13.07;;;7.28;;
75655;SDS011;64252;51.094;13.714;2023-05-07T04:58:37;12.88;;;6.63;;
75655;SDS011;64252;51.094;13.714;2023-05-07T05:01:04;12.95;;;7.05;;
75655;SDS011;64252;51.094;13.714;2023-05-07T05:03:30;12.80;;;6.88;;
75655;SDS011;64252;51.094;13.714;2023-05-07T05:05:56;14.55;;;7.38;;
75655;SDS011;64252;51.094;13.714;2023-05-07T05:08:26;12.32;;;6.60;;
75655;SDS011;64252;51.094;13.714;2023-05-07T05:10:52;11.93;;;6.93;;
75655;SDS011;64252;51.094;13.714;2023-05-07T05:13:18;16.42;;;8.13;;
75655;SDS011;64252;51.094;13.714;2023-05-07T05:15:44;16.92;;;7.93;;
75655;SDS011;64252;51.094;13.714;2023-05-07T05:18:09;14.63;;;8.45;;
75655;SDS011;64252;51.094;13.714;2023-05-07T05:20:36;15.05;;;8.00;;
75655;SDS011;64252;51.094;13.714;2023-05-07T05:23:02;14.48;;;7.35;;
75655;SDS011;64252;51.094;13.714;2023-05-07T05:25:29;13.27;;;7.15;;
75655;SDS011;64252;51.094;13.714;2023-05-07T05:27:55;13.88;;;7.40;;
75655;SDS011;64252;51.094;13.714;2023-05-07T05:30:22;15.18;;;7.63;;
75655;SDS011;64252;51.094;13.714;2023-05-07T05:32:47;13.45;;;6.93;;
75655;SDS011;64252;51.094;13.714;2023-05-07T05:35:13;12.60;;;7.43;;
75655;SDS011;64252;51.094;13.714;2023-05-07T05:37:40;12.93;;;6.60;;
75655;SDS011;64252;51.094;13.714;2023-05-07T05:40:06;13.48;;;7.35;;
75655;SDS011;64252;51.094;13.714;2023-05-07T05:42:32;12.52;;;6.80;;
75655;SDS011;64252;51.094;13.714;2023-05-07T05:44:58;11.00;;;6.90;;
75655;SDS011;64252;51.094;13.714;2023-05-07T05:47:25;15.27;;;7.75;;
75655;SDS011;64252;51.094;13.714;2023-05-07T05:49:53;12.60;;;6.13;;
75655;SDS011;64252;51.094;13.714;2023-05-07T05:52:19;12.18;;;6.07;;
75655;SDS011;64252;51.094;13.714;2023-05-07T05:54:45;13.88;;;6.82;;
75655;SDS011;64252;51.094;13.714;2023-05-07T05:57:11;12.95;;;6.88;;
75655;SDS011;64252;51.094;13.714;2023-05-07T05:59:37;11.57;;;6.60;;
75655;SDS011;64252;51.094;13.714;2023-05-07T06:02:02;11.35;;;6.03;;
75655;SDS011;64252;51.094;13.714;2023-05-07T06:04:28;11.25;;;5.95;;
75655;SDS011;64252;51.094;13.714;2023-05-07T06:06:54;11.23;;;5.95;;
75655;SDS011;64252;51.094;13.714;2023-05-07T06:09:23;11.55;;;5.70;;
75655;SDS011;64252;51.094;13.714;2023-05-07T06:11:49;14.38;;;5.97;;
75655;SDS011;64252;51.094;13.714;2023-05-07T06:14:15;13.18;;;6.05;;
75655;SDS011;64252;51.094;13.714;2023-05-07T06:16:41;9.82;;;5.55;;
75655;SDS011;64252;51.094;13.714;2023-05-07T06:19:07;11.27;;;5.88;;
75655;SDS011;64252;51.094;13.714;2023-05-07T06:21:33;9.00;;;5.32;;
75655;SDS011;64252;51.094;13.714;2023-05-07T06:23:58;9.02;;;5.10;;
75655;SDS011;64252;51.094;13.714;2023-05-07T06:26:24;11.60;;;5.90;;
75655;SDS011;64252;51.094;13.714;2023-05-07T06:28:51;11.85;;;5.97;;
75655;SDS011;64252;51.094;13.714;2023-05-07T06:31:17;12.15;;;5.97;;
75655;SDS011;64252;51.094;13.714;2023-05-07T06:33:58;10.43;;;5.35;;
75655;SDS011;64252;51.094;13.714;2023-05-07T06:36:30;11.30;;;6.43;;
75655;SDS011;64252;51.094;13.714;2023-05-07T06:38:57;9.68;;;5.60;;
75655;SDS011;64252;51.094;13.714;2023-05-07T06:41:23;10.07;;;5.25;;
75655;SDS011;64252;51.094;13.714;2023-05-07T06:43:48;8.85;;;5.07;;
75655;SDS011;64252;51.094;13.714;2023-05-07T06:46:37;9.35;;;5.00;;
75655;SDS011;64252;51.094;13.714;2023-05-07T06:49:04;11.10;;;5.53;;
75655;SDS011;64252;51.094;13.714;2023-05-07T06:51:30;9.07;;;5.38;;
75655;SDS011;64252;51.094;13.714;2023-05-07T06:54:01;10.55;;;6.25;;
75655;SDS011;64252;51.094;13.714;2023-05-07T06:56:27;9.02;;;5.45;;
75655;SDS011;64252;51.094;13.714;2023-05-07T06:58:52;8.85;;;5.55;;
75655;SDS011;64252;51.094;13.714;2023-05-07T07:01:19;11.25;;;6.00;;
75655;SDS011;64252;51.094;13.714;2023-05-07T07:03:45;11.80;;;6.10;;
75655;SDS011;64252;51.094;13.714;2023-05-07T07:06:11;13.40;;;5.65;;
75655;SDS011;64252;51.094;13.714;2023-05-07T07:08:36;10.10;;;5.07;;
75655;SDS011;64252;51.094;13.714;2023-05-07T07:11:07;9.43;;;5.53;;
75655;SDS011;64252;51.094;13.714;2023-05-07T07:13:33;9.95;;;5.65;;
75655;SDS011;64252;51.094;13.714;2023-05-07T07:15:59;9.57;;;4.68;;
75655;SDS011;64252;51.094;13.714;2023-05-07T07:18:25;9.32;;;3.90;;
75655;SDS011;64252;51.094;13.714;2023-05-07T07:20:52;7.22;;;3.80;;
75655;SDS011;64252;51.094;13.714;2023-05-07T07:23:17;7.00;;;4.10;;
75655;SDS011;64252;51.094;13.714;2023-05-07T07:25:43;7.05;;;4.07;;
75655;SDS011;64252;51.094;13.714;2023-05-07T07:28:10;7.53;;;4.00;;
75655;SDS011;64252;51.094;13.714;2023-05-07T07:30:38;6.05;;;3.33;;
75655;SDS011;64252;51.094;13.714;2023-05-07T07:33:04;6.38;;;4.18;;
75655;SDS011;64252;51.094;13.714;2023-05-07T07:35:34;6.25;;;3.50;;
75655;SDS011;64252;51.094;13.714;2023-05-07T07:38:01;6.05;;;3.35;;
75655;SDS011;64252;51.094;13.714;2023-05-07T07:40:28;5.22;;;3.08;;
75655;SDS011;64252;51.094;13.714;2023-05-07T07:42:54;6.50;;;3.75;;
75655;SDS011;64252;51.094;13.714;2023-05-07T07:45:21;5.93;;;3.17;;
75655;SDS011;64252;51.094;13.714;2023-05-07T07:47:48;5.57;;;3.53;;
75655;SDS011;64252;51.094;13.714;2023-05-07T07:50:14;5.40;;;3.40;;
75655;SDS011;64252;51.094;13.714;2023-05-07T07:52:39;5.45;;;3.10;;
75655;SDS011;64252;51.094;13.714;2023-05-07T07:55:06;5.32;;;3.42;;
75655;SDS011;64252;51.094;13.714;2023-05-07T07:57:33;6.35;;;3.05;;
75655;SDS011;64252;51.094;13.714;2023-05-07T07:59:59;6.07;;;3.67;;
75655;SDS011;64252;51.094;13.714;2023-05-07T08:02:26;5.85;;;3.42;;
75655;SDS011;64252;51.094;13.714;2023-05-07T08:04:52;6.57;;;3.15;;
75655;SDS011;64252;51.094;13.714;2023-05-07T08:07:18;6.40;;;2.92;;
75655;SDS011;64252;51.094;13.714;2023-05-07T08:09:47;5.07;;;3.17;;
75655;SDS011;64252;51.094;13.714;2023-05-07T08:12:14;5.70;;;3.40;;
75655;SDS011;64252;51.094;13.714;2023-05-07T08:14:40;5.13;;;2.95;;
75655;SDS011;64252;51.094;13.714;2023-05-07T08:17:08;5.43;;;3.30;;
75655;SDS011;64252;51.094;13.714;2023-05-07T08:19:36;5.55;;;3.05;;
75655;SDS011;64252;51.094;13.714;2023-05-07T08:22:03;6.65;;;3.10;;
75655;SDS011;64252;51.094;13.714;2023-05-07T08:24:33;5.38;;;2.85;;
75655;SDS011;64252;51.094;13.714;2023-05-07T08:27:00;6.18;;;3.03;;
75655;SDS011;64252;51.094;13.714;2023-05-07T08:29:41;4.00;;;2.40;;
75655;SDS011;64252;51.094;13.714;2023-05-07T08:32:07;5.13;;;2.78;;
75655;SDS011;64252;51.094;13.714;2023-05-07T08:34:33;4.53;;;2.72;;
75655;SDS011;64252;51.094;13.714;2023-05-07T08:37:01;4.65;;;2.50;;
75655;SDS011;64252;51.094;13.714;2023-05-07T08:39:28;5.30;;;2.47;;
75655;SDS011;64252;51.094;13.714;2023-05-07T08:41:55;4.68;;;2.60;;
75655;SDS011;64252;51.094;13.714;2023-05-07T08:44:26;4.75;;;2.60;;
75655;SDS011;64252;51.094;13.714;2023-05-07T08:46:55;5.20;;;3.00;;
75655;SDS011;64252;51.094;13.714;2023-05-07T08:49:23;5.22;;;3.05;;
75655;SDS011;64252;51.094;13.714;2023-05-07T08:51:50;5.63;;;3.50;;
75655;SDS011;64252;51.094;13.714;2023-05-07T08:54:21;5.93;;;3.85;;
75655;SDS011;64252;51.094;13.714;2023-05-07T08:56:51;6.10;;;3.42;;
75655;SDS011;64252;51.094;13.714;2023-05-07T08:59:18;7.05;;;3.53;;
75655;SDS011;64252;51.094;13.714;2023-05-07T09:01:44;7.60;;;4.10;;
75655;SDS011;64252;51.094;13.714;2023-05-07T09:04:10;5.97;;;3.65;;
75655;SDS011;64252;51.094;13.714;2023-05-07T09:06:39;5.75;;;3.38;;
75655;SDS011;64252;51.094;13.714;2023-05-07T09:09:09;6.20;;;3.88;;
75655;SDS011;64252;51.094;13.714;2023-05-07T09:11:38;6.88;;;3.80;;
75655;SDS011;64252;51.094;13.714;2023-05-07T09:14:04;6.20;;;3.60;;
75655;SDS011;64252;51.094;13.714;2023-05-07T09:16:35;7.85;;;3.28;;
75655;SDS011;64252;51.094;13.714;2023-05-07T09:19:01;6.65;;;3.50;;
75655;SDS011;64252;51.094;13.714;2023-05-07T09:21:27;5.97;;;3.53;;
75655;SDS011;64252;51.094;13.714;2023-05-07T09:23:58;5.82;;;3.10;;
75655;SDS011;64252;51.094;13.714;2023-05-07T09:26:32;7.22;;;4.10;;
75655;SDS011;64252;51.094;13.714;2023-05-07T09:28:59;5.82;;;3.22;;
75655;SDS011;64252;51.094;13.714;2023-05-07T09:31:26;5.07;;;2.90;;
75655;SDS011;64252;51.094;13.714;2023-05-07T09:33:53;6.40;;;3.55;;
75655;SDS011;64252;51.094;13.714;2023-05-07T09:36:22;6.47;;;3.95;;
75655;SDS011;64252;51.094;13.714;2023-05-07T09:38:48;8.27;;;4.28;;
75655;SDS011;64252;51.094;13.714;2023-05-07T09:41:16;7.22;;;4.07;;
75655;SDS011;64252;51.094;13.714;2023-05-07T09:43:55;5.93;;;3.75;;
75655;SDS011;64252;51.094;13.714;2023-05-07T09:46:30;5.53;;;3.60;;
75655;SDS011;64252;51.094;13.714;2023-05-07T09:49:01;5.78;;;3.60;;
75655;SDS011;64252;51.094;13.714;2023-05-07T09:51:30;7.05;;;3.90;;
75655;SDS011;64252;51.094;13.714;2023-05-07T09:54:03;6.25;;;3.28;;
75655;SDS011;64252;51.094;13.714;2023-05-07T09:56:32;7.57;;;4.13;;
75655;SDS011;64252;51.094;13.714;2023-05-07T09:59:00;8.50;;;4.50;;
75655;SDS011;64252;51.094;13.714;2023-05-07T10:01:30;6.80;;;4.03;;
75655;SDS011;64252;51.094;13.714;2023-05-07T10:04:01;8.00;;;4.07;;
75655;SDS011;64252;51.094;13.714;2023-05-07T10:06:29;6.15;;;3.80;;
75655;SDS011;64252;51.094;13.714;2023-05-07T10:08:56;7.15;;;4.50;;
75655;SDS011;64252;51.094;13.714;2023-05-07T10:11:22;6.93;;;4.43;;
75655;SDS011;64252;51.094;13.714;2023-05-07T10:13:48;7.35;;;4.53;;
75655;SDS011;64252;51.094;13.714;2023-05-07T10:16:15;7.03;;;4.10;;
75655;SDS011;64252;51.094;13.714;2023-05-07T10:18:46;7.75;;;4.38;;
75655;SDS011;64252;51.094;13.714;2023-05-07T10:21:18;8.13;;;4.07;;
75655;SDS011;64252;51.094;13.714;2023-05-07T10:23:50;6.20;;;4.03;;
75655;SDS011;64252;51.094;13.714;2023-05-07T10:26:23;6.15;;;4.05;;
75655;SDS011;64252;51.094;13.714;2023-05-07T10:28:53;7.65;;;4.43;;
75655;SDS011;64252;51.094;13.714;2023-05-07T10:31:32;6.82;;;4.68;;
75655;SDS011;64252;51.094;13.714;2023-05-07T10:34:10;6.75;;;4.40;;
75655;SDS011;64252;51.094;13.714;2023-05-07T10:36:39;8.73;;;5.10;;
75655;SDS011;64252;51.094;13.714;2023-05-07T10:39:06;7.75;;;4.78;;
75655;SDS011;64252;51.094;13.714;2023-05-07T10:41:32;7.28;;;4.13;;
75655;SDS011;64252;51.094;13.714;2023-05-07T10:43:58;6.57;;;4.25;;
75655;SDS011;64252;51.094;13.714;2023-05-07T10:46:31;6.88;;;4.38;;
75655;SDS011;64252;51.094;13.714;2023-05-07T10:49:09;6.85;;;4.45;;
75655;SDS011;64252;51.094;13.714;2023-05-07T10:52:12;6.65;;;4.03;;
75655;SDS011;64252;51.094;13.714;2023-05-07T10:57:43;6.28;;;3.50;;
75655;SDS011;64252;51.094;13.714;2023-05-07T11:05:30;7.88;;;4.05;;
75655;SDS011;64252;51.094;13.714;2023-05-07T11:08:18;6.15;;;4.18;;
75655;SDS011;64252;51.094;13.714;2023-05-07T11:10:57;6.63;;;4.13;;
75655;SDS011;64252;51.094;13.714;2023-05-07T11:13:41;5.78;;;3.75;;
75655;SDS011;64252;51.094;13.714;2023-05-07T11:16:20;6.35;;;3.55;;
75655;SDS011;64252;51.094;13.714;2023-05-07T11:18:56;5.88;;;3.85;;
75655;SDS011;64252;51.094;13.714;2023-05-07T11:21:35;5.32;;;3.42;;
75655;SDS011;64252;51.094;13.714;2023-05-07T11:24:22;5.90;;;3.65;;
75655;SDS011;64252;51.094;13.714;2023-05-07T11:27:01;4.80;;;2.88;;
75655;SDS011;64252;51.094;13.714;2023-05-07T11:29:29;5.55;;;3.60;;
75655;SDS011;64252;51.094;13.714;2023-05-07T11:32:06;6.13;;;3.65;;
75655;SDS011;64252;51.094;13.714;2023-05-07T11:34:40;5.32;;;3.10;;
75655;SDS011;64252;51.094;13.714;2023-05-07T11:37:06;4.88;;;2.92;;
75655;SDS011;64252;51.094;13.714;2023-05-07T11:39:55;6.32;;;3.53;;
75655;SDS011;64252;51.094;13.714;2023-05-07T11:42:38;6.38;;;3.25;;
75655;SDS011;64252;51.094;13.714;2023-05-07T11:45:06;6.93;;;3.60;;
75655;SDS011;64252;51.094;13.714;2023-05-07T11:47:33;5.65;;;3.55;;
75655;SDS011;64252;51.094;13.714;2023-05-07T11:50:06;6.28;;;3.60;;
75655;SDS011;64252;51.094;13.714;2023-05-07T11:52:33;6.13;;;3.38;;
75655;SDS011;64252;51.094;13.714;2023-05-07T11:54:59;5.38;;;3.35;;
75655;SDS011;64252;51.094;13.714;2023-05-07T11:57:26;6.10;;;3.65;;
75655;SDS011;64252;51.094;13.714;2023-05-07T11:59:56;5.03;;;3.30;;
75655;SDS011;64252;51.094;13.714;2023-05-07T12:02:23;5.93;;;3.25;;
75655;SDS011;64252;51.094;13.714;2023-05-07T12:04:53;6.43;;;3.70;;
75655;SDS011;64252;51.094;13.714;2023-05-07T12:07:20;5.50;;;3.30;;
75655;SDS011;64252;51.094;13.714;2023-05-07T12:09:46;6.18;;;3.25;;
75655;SDS011;64252;51.094;13.714;2023-05-07T12:12:12;5.40;;;3.50;;
75655;SDS011;64252;51.094;13.714;2023-05-07T12:14:41;6.25;;;3.83;;
75655;SDS011;64252;51.094;13.714;2023-05-07T12:17:10;5.72;;;3.80;;
75655;SDS011;64252;51.094;13.714;2023-05-07T12:19:37;5.45;;;3.58;;
75655;SDS011;64252;51.094;13.714;2023-05-07T12:22:04;5.90;;;3.75;;
75655;SDS011;64252;51.094;13.714;2023-05-07T12:27:28;6.40;;;3.78;;
75655;SDS011;64252;51.094;13.714;2023-05-07T12:29:53;5.75;;;3.88;;
75655;SDS011;64252;51.094;13.714;2023-05-07T12:32:20;7.70;;;3.60;;
75655;SDS011;64252;51.094;13.714;2023-05-07T12:34:49;6.00;;;3.60;;
75655;SDS011;64252;51.094;13.714;2023-05-07T12:37:15;6.90;;;3.72;;
75655;SDS011;64252;51.094;13.714;2023-05-07T12:39:44;4.78;;;3.13;;
75655;SDS011;64252;51.094;13.714;2023-05-07T12:42:19;5.45;;;3.20;;
75655;SDS011;64252;51.094;13.714;2023-05-07T12:44:51;4.78;;;3.13;;
75655;SDS011;64252;51.094;13.714;2023-05-07T12:47:17;5.18;;;3.45;;
75655;SDS011;64252;51.094;13.714;2023-05-07T12:49:43;5.07;;;3.50;;
75655;SDS011;64252;51.094;13.714;2023-05-07T12:52:11;9.50;;;3.72;;
75655;SDS011;64252;51.094;13.714;2023-05-07T12:54:37;5.20;;;3.22;;
75655;SDS011;64252;51.094;13.714;2023-05-07T12:57:07;6.65;;;4.25;;
75655;SDS011;64252;51.094;13.714;2023-05-07T12:59:34;5.75;;;3.42;;
75655;SDS011;64252;51.094;13.714;2023-05-07T13:02:07;5.60;;;3.50;;
75655;SDS011;64252;51.094;13.714;2023-05-07T13:04:35;4.82;;;3.00;;
75655;SDS011;64252;51.094;13.714;2023-05-07T13:07:01;4.88;;;3.20;;
75655;SDS011;64252;51.094;13.714;2023-05-07T13:09:27;4.55;;;3.13;;
75655;SDS011;64252;51.094;13.714;2023-05-07T13:11:54;6.03;;;2.65;;
75655;SDS011;64252;51.094;13.714;2023-05-07T13:14:20;4.97;;;3.20;;
75655;SDS011;64252;51.094;13.714;2023-05-07T13:16:49;4.30;;;2.92;;
75655;SDS011;64252;51.094;13.714;2023-05-07T13:19:15;5.15;;;2.92;;
75655;SDS011;64252;51.094;13.714;2023-05-07T13:21:41;4.55;;;2.80;;
75655;SDS011;64252;51.094;13.714;2023-05-07T13:24:07;4.40;;;2.85;;
75655;SDS011;64252;51.094;13.714;2023-05-07T13:26:33;6.05;;;3.00;;
75655;SDS011;64252;51.094;13.714;2023-05-07T13:28:58;4.60;;;2.50;;
75655;SDS011;64252;51.094;13.714;2023-05-07T13:31:25;4.65;;;2.70;;
75655;SDS011;64252;51.094;13.714;2023-05-07T13:33:51;7.90;;;3.00;;
75655;SDS011;64252;51.094;13.714;2023-05-07T13:36:17;4.20;;;2.75;;
75655;SDS011;64252;51.094;13.714;2023-05-07T13:38:44;4.70;;;2.90;;
75655;SDS011;64252;51.094;13.714;2023-05-07T13:41:12;5.45;;;2.67;;
75655;SDS011;64252;51.094;13.714;2023-05-07T13:43:39;4.13;;;2.78;;
75655;SDS011;64252;51.094;13.714;2023-05-07T13:46:04;4.35;;;2.70;;
75655;SDS011;64252;51.094;13.714;2023-05-07T13:48:30;5.32;;;2.72;;
75655;SDS011;64252;51.094;13.714;2023-05-07T13:50:55;4.15;;;2.67;;
75655;SDS011;64252;51.094;13.714;2023-05-07T13:53:21;4.38;;;2.80;;
75655;SDS011;64252;51.094;13.714;2023-05-07T13:55:47;4.97;;;3.03;;
75655;SDS011;64252;51.094;13.714;2023-05-07T13:58:13;5.25;;;2.90;;
75655;SDS011;64252;51.094;13.714;2023-05-07T14:00:39;4.50;;;2.47;;
75655;SDS011;64252;51.094;13.714;2023-05-07T14:03:04;6.05;;;2.70;;
75655;SDS011;64252;51.094;13.714;2023-05-07T14:05:30;4.70;;;2.72;;
75655;SDS011;64252;51.094;13.714;2023-05-07T14:07:59;4.45;;;2.67;;
75655;SDS011;64252;51.094;13.714;2023-05-07T14:12:51;4.60;;;2.78;;
75655;SDS011;64252;51.094;13.714;2023-05-07T14:15:17;3.72;;;2.22;;
75655;SDS011;64252;51.094;13.714;2023-05-07T14:17:43;5.05;;;2.70;;
75655;SDS011;64252;51.094;13.714;2023-05-07T14:20:09;5.55;;;2.55;;
75655;SDS011;64252;51.094;13.714;2023-05-07T14:22:36;3.90;;;2.30;;
75655;SDS011;64252;51.094;13.714;2023-05-07T14:25:02;4.18;;;2.40;;
75655;SDS011;64252;51.094;13.714;2023-05-07T14:27:28;4.55;;;2.72;;
75655;SDS011;64252;51.094;13.714;2023-05-07T14:29:54;5.03;;;2.90;;
75655;SDS011;64252;51.094;13.714;2023-05-07T14:32:20;4.38;;;2.42;;
75655;SDS011;64252;51.094;13.714;2023-05-07T14:34:46;3.40;;;2.08;;
75655;SDS011;64252;51.094;13.714;2023-05-07T14:37:11;5.13;;;2.72;;
75655;SDS011;64252;51.094;13.714;2023-05-07T14:39:38;4.95;;;2.63;;
75655;SDS011;64252;51.094;13.714;2023-05-07T14:42:04;4.10;;;2.40;;
75655;SDS011;64252;51.094;13.714;2023-05-07T14:44:30;5.03;;;2.15;;
75655;SDS011;64252;51.094;13.714;2023-05-07T14:46:56;3.92;;;2.63;;